Time;durP1;ratioP1;P1;durP2;ratioP2;P2;SDS_P1;SDS_P2;PMS_P1;PMS_P2;Temp;Humidity;BMP_temperature;BMP_pressure;BME280_temperature;BME280_humidity;BME280_pressure;Samples;Min_cycle;Max_cycle;Signal;HPM_P1;HPM_P2
2023/04/11 00:02:59;;;;;;;0.20;0.20;;;;;;;;;;10127733;29;20045;-83
2023/04/11 00:08:02;;;;;;;0.43;0.40;;;;;;;;;;10126385;29;20056;-83
2023/04/11 00:13:09;;;;;;;1.20;0.40;;;;;;;;;;10112169;29;20067;-83
2023/04/11 00:18:13;;;;;;;0.60;0.25;;;;;;;;;;10129819;29;20041;-83
2023/04/11 00:23:17;;;;;;;1.98;0.30;;;;;;;;;;10133083;29;20068;-83
2023/04/11 00:28:21;;;;;;;0.55;0.45;;;;;;;;;;10110921;29;20135;-83
2023/04/11 00:33:25;;;;;;;0.35;0.35;;;;;;;;;;10102961;29;20539;-83
2023/04/11 00:38:29;;;;;;;1.00;0.50;;;;;;;;;;10126479;29;20045;-84
2023/04/11 00:43:34;;;;;;;0.88;0.47;;;;;;;;;;10127116;29;20118;-83
2023/04/11 00:48:37;;;;;;;1.17;0.50;;;;;;;;;;10126193;29;20116;-83
2023/04/11 00:53:42;;;;;;;1.48;0.43;;;;;;;;;;10109014;29;20362;-83
2023/04/11 00:58:46;;;;;;;0.98;0.52;;;;;;;;;;10110732;29;20399;-84
2023/04/11 01:03:52;;;;;;;1.42;0.63;;;;;;;;;;10110167;29;20139;-83
2023/04/11 01:08:56;;;;;;;0.40;0.40;;;;;;;;;;10108580;29;20051;-83
2023/04/11 01:14:02;;;;;;;0.93;0.40;;;;;;;;;;10115958;29;20053;-83
2023/04/11 01:19:06;;;;;;;1.20;0.50;;;;;;;;;;10125252;29;20047;-83
2023/04/11 01:24:11;;;;;;;1.17;0.50;;;;;;;;;;10108471;29;20139;-83
2023/04/11 01:29:15;;;;;;;0.40;0.40;;;;;;;;;;10126280;29;20128;-83
2023/04/11 01:34:20;;;;;;;1.25;0.35;;;;;;;;;;10110522;29;20048;-82
2023/04/11 01:39:25;;;;;;;0.85;0.50;;;;;;;;;;10126077;29;20041;-83
2023/04/11 01:44:29;;;;;;;0.47;0.35;;;;;;;;;;10108676;29;20143;-83
2023/04/11 01:49:33;;;;;;;1.90;0.50;;;;;;;;;;10107168;29;20052;-83
2023/04/11 01:54:37;;;;;;;2.50;0.60;;;;;;;;;;10108967;29;20474;-83
2023/04/11 01:59:41;;;;;;;1.85;0.75;;;;;;;;;;10107649;29;20093;-83
2023/04/11 02:04:44;;;;;;;0.55;0.50;;;;;;;;;;10118216;29;20426;-82
2023/04/11 02:09:51;;;;;;;1.73;0.47;;;;;;;;;;10131363;29;20398;-84
2023/04/11 02:14:54;;;;;;;1.85;0.40;;;;;;;;;;10129357;29;20048;-84
2023/04/11 02:19:58;;;;;;;1.52;0.52;;;;;;;;;;10121832;29;20497;-83
2023/04/11 02:25:02;;;;;;;0.30;0.30;;;;;;;;;;10131407;29;20059;-83
2023/04/11 02:30:07;;;;;;;1.80;0.88;;;;;;;;;;10128608;29;20040;-83
2023/04/11 02:35:12;;;;;;;0.87;0.53;;;;;;;;;;10117735;29;20430;-83
2023/04/11 02:40:18;;;;;;;0.43;0.32;;;;;;;;;;10123235;29;20299;-83
2023/04/11 02:45:22;;;;;;;0.40;0.30;;;;;;;;;;10119177;23;20205;-83
2023/04/11 02:50:25;;;;;;;0.60;0.28;;;;;;;;;;10040066;29;20041;-87
2023/04/11 02:55:31;;;;;;;1.15;0.25;;;;;;;;;;10027712;29;20056;-87
2023/04/11 03:00:36;;;;;;;0.75;0.35;;;;;;;;;;10051469;29;20584;-87
2023/04/11 03:05:42;;;;;;;0.38;0.38;;;;;;;;;;10043489;29;20049;-87
2023/04/11 03:10:49;;;;;;;0.67;0.33;;;;;;;;;;10040721;29;20451;-84
2023/04/11 03:15:53;;;;;;;0.73;0.20;;;;;;;;;;10031979;29;20730;-83
2023/04/11 03:20:59;;;;;;;0.75;0.40;;;;;;;;;;10034624;29;20038;-86
2023/04/11 03:26:06;;;;;;;1.58;0.30;;;;;;;;;;10043810;29;20106;-86
2023/04/11 03:31:10;;;;;;;0.82;0.50;;;;;;;;;;10045288;29;20065;-86
2023/04/11 03:36:15;;;;;;;1.98;0.40;;;;;;;;;;10044939;29;20110;-85
2023/04/11 03:41:20;;;;;;;2.67;0.63;;;;;;;;;;10036724;29;20048;-85
2023/04/11 03:46:26;;;;;;;1.25;0.40;;;;;;;;;;10045703;29;20045;-85
2023/04/11 03:51:30;;;;;;;1.92;0.60;;;;;;;;;;10034847;29;20050;-85
2023/04/11 03:56:42;;;;;;;1.08;0.57;;;;;;;;;;10027480;29;20053;-85
2023/04/11 04:01:53;;;;;;;1.10;0.50;;;;;;;;;;10027944;29;20049;-84
2023/04/11 04:06:57;;;;;;;2.95;0.77;;;;;;;;;;10039952;29;20045;-85
2023/04/11 04:12:10;;;;;;;1.48;0.85;;;;;;;;;;10019971;29;20580;-84
2023/04/11 04:17:30;;;;;;;3.55;0.90;;;;;;;;;;10040301;29;20050;-85
2023/04/11 04:22:35;;;;;;;3.20;0.80;;;;;;;;;;10042825;29;20046;-87
2023/04/11 04:27:43;;;;;;;3.58;1.20;;;;;;;;;;10033279;29;20105;-85
2023/04/11 04:32:53;;;;;;;4.10;1.30;;;;;;;;;;10027897;29;20083;-89
2023/04/11 04:38:05;;;;;;;2.28;0.82;;;;;;;;;;10024471;29;20048;-86
2023/04/11 04:43:23;;;;;;;3.50;0.85;;;;;;;;;;10024400;29;20148;-84
2023/04/11 04:48:41;;;;;;;2.28;1.08;;;;;;;;;;10023577;29;20053;-83
2023/04/11 04:53:45;;;;;;;3.35;1.10;;;;;;;;;;10020878;29;20400;-84
2023/04/11 04:58:51;;;;;;;3.95;1.45;;;;;;;;;;10059260;29;20040;-84
2023/04/11 05:03:58;;;;;;;3.35;1.15;;;;;;;;;;10058852;29;20459;-84
2023/04/11 05:09:22;;;;;;;2.72;1.25;;;;;;;;;;10077141;29;20049;-84
2023/04/11 05:14:31;;;;;;;4.70;1.30;;;;;;;;;;10067509;29;20068;-84
2023/04/11 05:19:34;;;;;;;3.25;1.27;;;;;;;;;;10054230;29;20076;-84
2023/04/11 05:24:38;;;;;;;9.35;1.50;;;;;;;;;;10060063;29;20053;-84
2023/04/11 05:29:47;;;;;;;4.53;1.10;;;;;;;;;;10059033;29;20689;-84
2023/04/11 05:34:54;;;;;;;7.95;1.70;;;;;;;;;;10059191;29;20506;-84
2023/04/11 05:40:10;;;;;;;5.70;1.77;;;;;;;;;;10055345;29;20037;-85
2023/04/11 05:45:14;;;;;;;12.07;2.20;;;;;;;;;;10082130;29;20113;-84
2023/04/11 05:50:18;;;;;;;5.50;1.80;;;;;;;;;;10068256;29;20783;-86
2023/04/11 05:55:22;;;;;;;3.38;1.58;;;;;;;;;;10071546;29;20053;-86
2023/04/11 06:00:29;;;;;;;7.28;1.80;;;;;;;;;;10078760;29;20065;-87
2023/04/11 06:05:33;;;;;;;7.90;1.80;;;;;;;;;;10071173;29;20052;-86
2023/04/11 06:10:37;;;;;;;6.22;1.67;;;;;;;;;;10088171;29;20045;-87
2023/04/11 06:15:42;;;;;;;10.90;2.60;;;;;;;;;;10086206;29;20055;-86
2023/04/11 06:20:47;;;;;;;3.25;1.05;;;;;;;;;;10068547;29;20053;-86
2023/04/11 06:25:51;;;;;;;5.45;1.50;;;;;;;;;;10085661;29;20169;-90
2023/04/11 06:30:56;;;;;;;5.13;1.67;;;;;;;;;;10072669;29;20053;-86
2023/04/11 06:36:00;;;;;;;7.60;1.98;;;;;;;;;;10067704;29;20277;-88
2023/04/11 06:41:04;;;;;;;11.63;2.55;;;;;;;;;;10062119;29;20108;-86
2023/04/11 06:46:10;;;;;;;8.07;2.10;;;;;;;;;;10089603;29;20045;-86
2023/04/11 06:51:13;;;;;;;6.72;1.40;;;;;;;;;;10087179;29;20064;-86
2023/04/11 06:56:17;;;;;;;5.03;1.33;;;;;;;;;;10071847;29;20053;-87
2023/04/11 07:01:24;;;;;;;4.93;1.73;;;;;;;;;;10068099;29;20105;-87
2023/04/11 07:06:28;;;;;;;9.65;1.92;;;;;;;;;;10083861;29;20117;-87
2023/04/11 07:11:31;;;;;;;10.30;1.60;;;;;;;;;;10064260;29;20407;-86
2023/04/11 07:16:36;;;;;;;5.75;1.55;;;;;;;;;;10064656;29;20072;-84
2023/04/11 07:21:40;;;;;;;7.67;1.80;;;;;;;;;;10062950;29;20053;-85
2023/04/11 07:26:45;;;;;;;7.85;1.90;;;;;;;;;;10064509;29;20056;-85
2023/04/11 07:31:50;;;;;;;6.32;1.95;;;;;;;;;;10063732;29;20097;-85
2023/04/11 07:36:59;;;;;;;5.30;1.65;;;;;;;;;;10063072;29;20049;-84
2023/04/11 07:42:03;;;;;;;7.63;1.58;;;;;;;;;;10075625;29;20049;-83
2023/04/11 07:47:08;;;;;;;9.00;1.92;;;;;;;;;;10063263;29;20125;-83
2023/04/11 07:52:11;;;;;;;6.70;1.88;;;;;;;;;;10061989;29;20049;-84
2023/04/11 07:57:15;;;;;;;3.17;1.50;;;;;;;;;;10067210;29;20052;-84
2023/04/11 08:02:20;;;;;;;5.35;1.30;;;;;;;;;;10062738;29;20052;-83
2023/04/11 08:07:24;;;;;;;5.22;1.30;;;;;;;;;;10061586;29;20072;-84
2023/04/11 08:12:27;;;;;;;6.55;1.77;;;;;;;;;;10060703;29;20045;-83
2023/04/11 08:17:36;;;;;;;6.35;1.70;;;;;;;;;;10061740;29;20475;-84
2023/04/11 08:22:43;;;;;;;6.93;2.13;;;;;;;;;;10082817;29;20499;-84
2023/04/11 08:27:47;;;;;;;8.27;2.00;;;;;;;;;;10074976;29;20080;-84
2023/04/11 08:32:51;;;;;;;5.45;1.60;;;;;;;;;;10062015;29;20140;-85
2023/04/11 08:38:01;;;;;;;5.45;2.17;;;;;;;;;;10063336;29;20052;-86
2023/04/11 08:43:11;;;;;;;9.40;1.98;;;;;;;;;;10075568;29;20041;-87
2023/04/11 08:48:34;;;;;;;6.13;1.60;;;;;;;;;;10063442;29;20147;-84
2023/04/11 08:53:39;;;;;;;8.10;1.83;;;;;;;;;;10058948;29;20455;-84
2023/04/11 08:58:46;;;;;;;4.57;1.38;;;;;;;;;;10076470;29;20083;-87
2023/04/11 09:03:51;;;;;;;6.15;1.60;;;;;;;;;;10060512;29;20053;-86
2023/04/11 09:08:55;;;;;;;2.65;1.13;;;;;;;;;;10071311;29;20076;-84
2023/04/11 09:14:09;;;;;;;5.40;1.30;;;;;;;;;;10076918;29;20052;-84
2023/04/11 09:19:24;;;;;;;3.80;1.05;;;;;;;;;;10076129;29;20056;-85
2023/04/11 09:24:28;;;;;;;2.50;0.90;;;;;;;;;;10080325;29;20170;-86
2023/04/11 09:29:39;;;;;;;3.50;1.63;;;;;;;;;;10077561;29;20546;-85
2023/04/11 09:34:44;;;;;;;1.77;0.93;;;;;;;;;;10061060;29;20088;-87
2023/04/11 09:39:58;;;;;;;5.13;1.42;;;;;;;;;;10061902;29;20566;-85
2023/04/11 09:45:03;;;;;;;4.72;1.20;;;;;;;;;;10062673;29;20567;-86
2023/04/11 09:50:09;;;;;;;4.85;1.33;;;;;;;;;;10063170;29;20045;-82
2023/04/11 09:55:15;;;;;;;2.63;0.70;;;;;;;;;;10065513;29;20057;-81
2023/04/11 10:00:21;;;;;;;3.67;0.80;;;;;;;;;;10060190;29;20049;-82
2023/04/11 10:05:27;;;;;;;8.45;1.63;;;;;;;;;;10068199;29;20059;-80
2023/04/11 10:10:31;;;;;;;;;;;;;;;;;;10062683;29;20172;-83
2023/04/11 10:15:35;;;;;;;3.72;1.20;;;;;;;;;;10070020;29;20358;-82
2023/04/11 10:20:48;;;;;;;5.82;1.30;;;;;;;;;;10081383;29;20041;-82
2023/04/11 10:25:55;;;;;;;4.18;1.05;;;;;;;;;;10079621;29;20052;-84
2023/04/11 10:31:03;;;;;;;4.83;1.10;;;;;;;;;;10073946;29;20064;-82
2023/04/11 10:36:09;;;;;;;3.55;1.05;;;;;;;;;;10082706;29;20049;-82
2023/04/11 10:41:35;;;;;;;4.35;1.30;;;;;;;;;;10069993;29;20541;-82
2023/04/11 10:46:46;;;;;;;5.00;1.30;;;;;;;;;;10082620;29;20131;-82
2023/04/11 10:51:51;;;;;;;3.35;1.20;;;;;;;;;;10080924;29;20124;-82
2023/04/11 10:56:56;;;;;;;3.67;0.97;;;;;;;;;;10078291;29;20055;-82
2023/04/11 11:02:04;;;;;;;2.65;0.95;;;;;;;;;;10076056;29;20045;-82
2023/04/11 11:07:16;;;;;;;4.15;0.90;;;;;;;;;;10056436;29;20184;-83
2023/04/11 11:12:19;;;;;;;3.22;0.88;;;;;;;;;;10073273;29;20041;-82
2023/04/11 11:17:23;;;;;;;3.47;0.80;;;;;;;;;;10077876;29;20048;-82
2023/04/11 11:22:29;;;;;;;3.53;0.93;;;;;;;;;;10059890;29;20041;-82
2023/04/11 11:27:33;;;;;;;3.03;1.30;;;;;;;;;;10061999;29;20440;-82
2023/04/11 11:32:36;;;;;;;2.83;0.85;;;;;;;;;;10062629;29;20396;-82
2023/04/11 11:37:41;;;;;;;2.35;0.70;;;;;;;;;;10077784;29;20045;-82
2023/04/11 11:42:45;;;;;;;2.65;0.77;;;;;;;;;;10077397;29;20068;-83
2023/04/11 11:47:50;;;;;;;3.60;0.95;;;;;;;;;;10077566;29;20090;-83
2023/04/11 11:52:55;;;;;;;2.50;0.90;;;;;;;;;;10075475;29;20131;-83
2023/04/11 11:58:01;;;;;;;2.60;0.43;;;;;;;;;;10075687;29;20303;-82
2023/04/11 12:03:05;;;;;;;4.40;1.20;;;;;;;;;;10076468;29;20040;-83
2023/04/11 12:08:11;;;;;;;3.22;0.98;;;;;;;;;;10061517;29;20045;-82
2023/04/11 12:13:16;;;;;;;4.20;1.20;;;;;;;;;;10059791;29;20052;-82
2023/04/11 12:18:24;;;;;;;2.33;0.70;;;;;;;;;;10077968;29;20061;-82
2023/04/11 12:23:29;;;;;;;3.65;0.73;;;;;;;;;;10080958;29;20037;-85
2023/04/11 12:28:32;;;;;;;3.15;0.80;;;;;;;;;;10080729;29;20045;-85
2023/04/11 12:33:36;;;;;;;4.25;0.90;;;;;;;;;;10082814;29;20045;-84
2023/04/11 12:38:41;;;;;;;2.00;0.70;;;;;;;;;;10066505;29;20072;-85
2023/04/11 12:43:46;;;;;;;3.20;0.82;;;;;;;;;;10083638;29;20120;-85
2023/04/11 12:48:50;;;;;;;4.25;1.17;;;;;;;;;;10090581;29;20076;-84
2023/04/11 12:53:55;;;;;;;3.03;0.75;;;;;;;;;;10065437;29;20065;-85
2023/04/11 12:59:00;;;;;;;4.88;1.15;;;;;;;;;;10082186;29;20499;-87
2023/04/11 13:04:03;;;;;;;3.17;0.85;;;;;;;;;;10083925;29;20045;-86
2023/04/11 13:09:08;;;;;;;5.63;1.15;;;;;;;;;;10084634;29;20522;-87
2023/04/11 13:14:11;;;;;;;3.45;0.90;;;;;;;;;;10084096;29;20673;-83
2023/04/11 13:19:15;;;;;;;3.53;0.85;;;;;;;;;;10075826;29;20045;-82
2023/04/11 13:24:20;;;;;;;2.15;0.80;;;;;;;;;;10057352;29;20565;-82
2023/04/11 13:29:23;;;;;;;3.50;1.02;;;;;;;;;;10057720;29;20048;-83
2023/04/11 13:34:28;;;;;;;4.65;0.98;;;;;;;;;;10058048;29;20607;-83
2023/04/11 13:39:34;;;;;;;4.80;0.80;;;;;;;;;;10058229;29;20674;-84
2023/04/11 13:44:37;;;;;;;1.98;0.50;;;;;;;;;;10057414;29;20065;-85
2023/04/11 13:49:43;;;;;;;3.25;0.60;;;;;;;;;;10076291;29;20112;-87
2023/04/11 13:54:48;;;;;;;3.65;1.13;;;;;;;;;;10060815;29;20049;-86
2023/04/11 13:59:52;;;;;;;2.97;0.88;;;;;;;;;;10059374;29;20045;-85
2023/04/11 14:04:55;;;;;;;3.50;0.90;;;;;;;;;;10081582;29;20065;-85
2023/04/11 14:10:00;;;;;;;2.92;0.85;;;;;;;;;;10085560;29;20056;-85
2023/04/11 14:15:06;;;;;;;4.47;0.90;;;;;;;;;;10061845;29;20430;-85
2023/04/11 14:20:11;;;;;;;3.30;0.80;;;;;;;;;;10081975;29;20131;-83
2023/04/11 14:31:33;;;;;;;7.20;1.40;;;;;;;;;;10080518;29;20049;-86
2023/04/11 14:36:37;;;;;;;3.63;1.00;;;;;;;;;;10082090;29;20045;-85
2023/04/11 14:41:41;;;;;;;3.08;0.70;;;;;;;;;;10070823;29;20045;-87
2023/04/11 14:46:45;;;;;;;1.70;0.82;;;;;;;;;;10088563;23;20362;-85
2023/04/11 14:51:49;;;;;;;3.10;0.73;;;;;;;;;;10028502;29;20060;-84
2023/04/11 14:56:52;;;;;;;3.75;1.35;;;;;;;;;;10045814;29;20478;-85
2023/04/11 15:01:57;;;;;;;7.00;1.23;;;;;;;;;;10034932;29;20052;-84
2023/04/11 15:07:01;;;;;;;4.45;1.10;;;;;;;;;;10028099;29;20056;-84
2023/04/11 15:12:05;;;;;;;4.00;0.77;;;;;;;;;;10030876;29;20105;-84
2023/04/11 15:17:10;;;;;;;1.92;0.93;;;;;;;;;;10045597;29;20581;-82
2023/04/11 15:22:13;;;;;;;2.65;0.70;;;;;;;;;;10044358;29;20041;-83
2023/04/11 15:27:16;;;;;;;2.63;1.00;;;;;;;;;;10042185;29;20052;-82
2023/04/11 15:32:21;;;;;;;1.88;0.52;;;;;;;;;;10043114;29;20038;-84
2023/04/11 15:37:25;;;;;;;1.98;0.98;;;;;;;;;;10041192;29;20057;-83
2023/04/11 15:42:28;;;;;;;2.72;1.15;;;;;;;;;;10032396;29;20136;-82
2023/04/11 15:47:33;;;;;;;2.67;0.73;;;;;;;;;;10025106;29;20053;-82
2023/04/11 15:52:37;;;;;;;4.13;1.00;;;;;;;;;;10023463;29;20121;-82
2023/04/11 15:57:40;;;;;;;1.90;0.88;;;;;;;;;;10040553;29;20056;-83
2023/04/11 16:02:45;;;;;;;2.55;0.80;;;;;;;;;;10041752;29;20069;-84
2023/04/11 16:07:49;;;;;;;2.00;0.70;;;;;;;;;;10021192;29;20064;-84
2023/04/11 16:12:52;;;;;;;4.25;0.95;;;;;;;;;;10040444;29;20060;-84
2023/04/11 16:17:57;;;;;;;3.42;0.90;;;;;;;;;;10022963;29;20045;-84
2023/04/11 16:23:00;;;;;;;1.48;0.68;;;;;;;;;;10041793;29;20037;-84
2023/04/11 16:28:04;;;;;;;1.88;0.45;;;;;;;;;;10024337;29;20053;-84
2023/04/11 16:33:08;;;;;;;1.85;0.70;;;;;;;;;;10039460;29;21737;-86
2023/04/11 16:38:11;;;;;;;3.58;0.90;;;;;;;;;;10025564;29;20057;-84
2023/04/11 16:43:15;;;;;;;2.25;0.85;;;;;;;;;;10024779;29;20056;-84
2023/04/11 16:48:20;;;;;;;4.10;0.88;;;;;;;;;;10019609;29;20084;-84
2023/04/11 16:53:23;;;;;;;3.72;1.10;;;;;;;;;;10038226;29;20049;-81
2023/04/11 16:58:27;;;;;;;2.47;0.88;;;;;;;;;;10023441;29;20069;-84
2023/04/11 17:03:33;;;;;;;1.08;0.40;;;;;;;;;;10021289;29;20038;-85
2023/04/11 17:08:36;;;;;;;1.60;0.50;;;;;;;;;;10024352;29;20045;-83
2023/04/11 17:13:43;;;;;;;1.67;0.50;;;;;;;;;;10047827;29;20511;-83
2023/04/11 17:18:49;;;;;;;2.33;0.30;;;;;;;;;;10028952;29;20052;-83
2023/04/11 17:23:53;;;;;;;2.70;0.95;;;;;;;;;;10046772;29;20105;-81
2023/04/11 17:28:57;;;;;;;1.98;0.60;;;;;;;;;;10022158;29;20045;-83
2023/04/11 17:34:03;;;;;;;0.77;0.40;;;;;;;;;;10045018;29;20045;-83
2023/04/11 17:39:07;;;;;;;2.53;0.43;;;;;;;;;;10032352;29;20057;-83
2023/04/11 17:44:12;;;;;;;1.92;0.50;;;;;;;;;;10046240;29;20077;-82
2023/04/11 17:49:18;;;;;;;0.70;0.40;;;;;;;;;;10063269;29;20072;-82
2023/04/11 17:54:23;;;;;;;1.65;0.35;;;;;;;;;;10060065;29;20797;-82
2023/04/11 17:59:26;;;;;;;2.10;0.55;;;;;;;;;;10045790;29;21037;-82
2023/04/11 18:04:32;;;;;;;1.70;0.60;;;;;;;;;;10066779;29;20124;-83
2023/04/11 18:09:39;;;;;;;0.75;0.32;;;;;;;;;;10050615;29;20277;-82
2023/04/11 18:14:43;;;;;;;1.15;0.68;;;;;;;;;;10041480;29;20121;-83
2023/04/11 18:19:57;;;;;;;2.80;1.35;;;;;;;;;;10033865;29;20041;-82
2023/04/11 18:25:02;;;;;;;3.75;1.20;;;;;;;;;;10053113;29;20034;-82
2023/04/11 18:30:09;;;;;;;2.65;1.25;;;;;;;;;;10036359;29;20077;-82
2023/04/11 18:35:15;;;;;;;4.93;1.50;;;;;;;;;;10056521;29;20052;-82
2023/04/11 18:40:19;;;;;;;2.05;1.50;;;;;;;;;;10044579;29;20042;-83
2023/04/11 18:45:25;;;;;;;2.28;1.63;;;;;;;;;;10031381;29;20309;-82
2023/04/11 18:50:30;;;;;;;3.33;1.83;;;;;;;;;;10045212;29;20065;-83
2023/04/11 18:55:34;;;;;;;3.20;1.77;;;;;;;;;;10060767;29;20047;-82
2023/04/11 19:00:38;;;;;;;1.85;1.05;;;;;;;;;;10026271;29;20050;-82
2023/04/11 19:05:44;;;;;;;3.15;1.20;;;;;;;;;;10045746;29;20081;-82
2023/04/11 19:10:49;;;;;;;4.15;1.77;;;;;;;;;;10042813;29;20049;-80
2023/04/11 19:15:53;;;;;;;4.35;2.13;;;;;;;;;;10063751;29;20072;-81
2023/04/11 19:20:58;;;;;;;3.40;1.52;;;;;;;;;;10033431;29;20046;-81
2023/04/11 19:26:01;;;;;;;2.83;1.30;;;;;;;;;;10059754;29;20128;-80
2023/04/11 19:31:06;;;;;;;4.97;1.83;;;;;;;;;;10048880;29;20057;-80
2023/04/11 19:36:10;;;;;;;5.10;2.20;;;;;;;;;;10062795;29;20687;-81
2023/04/11 19:41:15;;;;;;;4.57;2.28;;;;;;;;;;10055641;29;20070;-81
2023/04/11 19:46:18;;;;;;;4.45;1.67;;;;;;;;;;10063914;29;20072;-80
2023/04/11 19:51:23;;;;;;;2.25;1.33;;;;;;;;;;10056697;29;20271;-80
2023/04/11 19:56:27;;;;;;;1.95;1.10;;;;;;;;;;10043134;29;20560;-81
2023/04/11 20:01:31;;;;;;;1.25;0.60;;;;;;;;;;10024917;29;20064;-82
2023/04/11 20:06:35;;;;;;;2.67;0.90;;;;;;;;;;10046757;29;20069;-82
2023/04/11 20:11:39;;;;;;;3.05;0.70;;;;;;;;;;10043294;29;20396;-81
2023/04/11 20:16:42;;;;;;;2.90;0.70;;;;;;;;;;10029885;29;20518;-82
2023/04/11 20:21:47;;;;;;;2.25;0.75;;;;;;;;;;10036311;29;20467;-82
2023/04/11 20:26:51;;;;;;;1.67;0.80;;;;;;;;;;10030601;29;20136;-82
2023/04/11 20:31:55;;;;;;;0.75;0.40;;;;;;;;;;10042805;29;20073;-81
2023/04/11 20:37:00;;;;;;;1.85;0.57;;;;;;;;;;10029862;29;20091;-82
2023/04/11 20:42:04;;;;;;;1.63;0.97;;;;;;;;;;10025537;29;20141;-82
2023/04/11 20:47:10;;;;;;;0.93;0.60;;;;;;;;;;10058060;23;20049;-86
2023/04/11 20:52:17;;;;;;;1.35;0.77;;;;;;;;;;10058885;29;20049;-84
2023/04/11 20:57:20;;;;;;;;;;;;;;;;;;10069238;29;20820;-85
2023/04/11 21:02:24;;;;;;;1.88;0.60;;;;;;;;;;10058480;29;20380;-85
2023/04/11 21:07:30;;;;;;;1.52;0.63;;;;;;;;;;10074016;29;20045;-86
2023/04/11 21:12:33;;;;;;;2.17;0.75;;;;;;;;;;10058556;29;20503;-82
2023/04/11 21:17:38;;;;;;;0.70;0.35;;;;;;;;;;10064404;29;20109;-82
2023/04/11 21:22:42;;;;;;;1.75;0.65;;;;;;;;;;10067968;29;20597;-82
2023/04/11 21:27:48;;;;;;;0.82;0.43;;;;;;;;;;10086436;29;20037;-84
2023/04/11 21:32:52;;;;;;;2.95;0.88;;;;;;;;;;10067250;29;20051;-86
2023/04/11 21:37:56;;;;;;;3.17;0.80;;;;;;;;;;10085295;29;20056;-84
2023/04/11 21:43:00;;;;;;;1.98;0.80;;;;;;;;;;10067467;29;20738;-84
2023/04/11 21:48:04;;;;;;;0.73;0.50;;;;;;;;;;10070325;29;20060;-85
2023/04/11 21:53:12;;;;;;;2.25;0.98;;;;;;;;;;10085644;29;20064;-84
2023/04/11 21:58:16;;;;;;;1.55;0.60;;;;;;;;;;10070746;29;20105;-84
2023/04/11 22:03:28;;;;;;;0.70;0.60;;;;;;;;;;10082745;29;20057;-84
2023/04/11 22:08:37;;;;;;;1.98;0.70;;;;;;;;;;10066681;29;20121;-85
2023/04/11 22:13:45;;;;;;;1.75;0.60;;;;;;;;;;10065094;29;20049;-86
2023/04/11 22:18:48;;;;;;;2.10;0.57;;;;;;;;;;10065485;29;20129;-85
2023/04/11 22:23:57;;;;;;;1.10;0.47;;;;;;;;;;10081761;29;20462;-83
2023/04/11 22:29:03;;;;;;;1.27;0.60;;;;;;;;;;10091383;29;20049;-82
2023/04/11 22:34:08;;;;;;;2.15;0.70;;;;;;;;;;10073595;29;20052;-82
2023/04/11 22:39:19;;;;;;;1.77;0.50;;;;;;;;;;10075243;29;20701;-82
2023/04/11 22:44:27;;;;;;;1.27;0.60;;;;;;;;;;10067774;29;20140;-83
2023/04/11 22:49:41;;;;;;;1.55;0.73;;;;;;;;;;10074564;29;20053;-83
2023/04/11 22:54:57;;;;;;;2.22;0.43;;;;;;;;;;10077373;29;20104;-83
2023/04/11 23:00:03;;;;;;;3.95;1.10;;;;;;;;;;10088277;29;20049;-83
2023/04/11 23:05:09;;;;;;;1.95;0.55;;;;;;;;;;10084546;29;20048;-83
2023/04/11 23:10:14;;;;;;;1.85;0.43;;;;;;;;;;10089192;29;20124;-83
2023/04/11 23:15:19;;;;;;;3.88;0.90;;;;;;;;;;10074418;29;20045;-82
2023/04/11 23:20:22;;;;;;;2.80;0.60;;;;;;;;;;10073455;29;20056;-83
2023/04/11 23:25:45;;;;;;;0.63;0.50;;;;;;;;;;10072996;29;20052;-83
2023/04/11 23:30:48;;;;;;;1.83;0.80;;;;;;;;;;10072937;29;20041;-82
2023/04/11 23:35:52;;;;;;;1.92;0.70;;;;;;;;;;10090672;29;20583;-83
2023/04/11 23:40:56;;;;;;;1.45;0.57;;;;;;;;;;10090274;29;20053;-83
2023/04/11 23:46:00;;;;;;;1.02;0.45;;;;;;;;;;10087852;29;20495;-82
2023/04/11 23:51:04;;;;;;;2.63;0.82;;;;;;;;;;10090689;29;20149;-83
2023/04/11 23:56:09;;;;;;;0.80;0.40;;;;;;;;;;10073184;29;20080;-83
